Time;durP1;ratioP1;P1;durP2;ratioP2;P2;SDS_P1;SDS_P2;PMS_P1;PMS_P2;Temp;Humidity;BMP_temperature;BMP_pressure;BME280_temperature;BME280_humidity;BME280_pressure;Samples;Min_cycle;Max_cycle;Signal;HPM_P1;HPM_P2
2022/01/26 00:07:48;;;;;;;26.17;10.80;;;4.30;99.90;;;;;;5073756;28;20565;-88
2022/01/26 00:10:14;;;;;;;32.80;11.87;;;4.20;99.90;;;;;;5055639;28;20541;-88
2022/01/26 00:12:40;;;;;;;24.80;12.13;;;4.30;99.90;;;;;;5045479;28;20196;-88
2022/01/26 00:15:06;;;;;;;23.70;12.33;;;4.20;99.90;;;;;;5044205;28;20189;-87
2022/01/26 00:17:31;;;;;;;22.70;10.43;;;4.20;99.90;;;;;;5035731;28;20573;-87
2022/01/26 00:20:16;;;;;;;27.20;11.73;;;4.20;99.90;;;;;;5060666;28;20520;-87
2022/01/26 00:27:54;;;;;;;24.23;12.07;;;4.20;99.90;;;;;;5073638;28;20490;-88
2022/01/26 00:38:39;;;;;;;24.83;10.83;;;4.20;99.90;;;;;;5077580;28;20430;-87
2022/01/26 00:41:13;;;;;;;21.23;9.27;;;4.20;99.90;;;;;;5055300;28;20473;-87
2022/01/26 00:43:46;;;;;;;29.97;11.77;;;4.20;99.90;;;;;;5038793;28;20450;-87
2022/01/26 00:46:12;;;;;;;37.70;12.73;;;4.10;99.90;;;;;;5072720;28;20414;-87
2022/01/26 00:48:38;;;;;;;26.70;12.97;;;4.20;99.90;;;;;;5072569;28;20411;-87
2022/01/26 00:51:06;;;;;;;18.97;8.40;;;4.10;99.90;;;;;;5072770;28;20445;-87
2022/01/26 00:53:36;;;;;;;23.90;8.97;;;4.00;99.90;;;;;;5054872;28;20761;-87
2022/01/26 00:56:04;;;;;;;25.83;10.90;;;3.90;99.90;;;;;;5072817;28;20967;-86
2022/01/26 00:58:30;;;;;;;25.93;11.03;;;4.00;99.90;;;;;;5054694;28;20419;-87
2022/01/26 01:00:59;;;;;;;18.73;8.80;;;4.00;99.90;;;;;;5054364;28;20596;-86
2022/01/26 01:03:25;;;;;;;24.00;10.17;;;4.10;99.90;;;;;;5054226;28;20434;-86
2022/01/26 01:08:24;;;;;;;21.90;8.73;;;4.20;99.90;;;;;;5072452;28;20417;-86
2022/01/26 01:10:51;;;;;;;21.63;10.13;;;4.20;99.90;;;;;;5054359;28;20438;-86
2022/01/26 01:13:21;;;;;;;21.67;10.83;;;4.20;99.90;;;;;;5054412;28;20407;-86
2022/01/26 01:15:48;;;;;;;25.87;10.00;;;4.20;99.90;;;;;;5072562;28;20743;-86
2022/01/26 01:18:25;;;;;;;25.43;9.47;;;4.20;99.90;;;;;;5071906;28;20413;-86
2022/01/26 01:26:11;;;;;;;17.30;9.90;;;4.20;99.90;;;;;;5076461;28;20427;-86
2022/01/26 01:34:05;;;;;;;28.27;13.00;;;4.10;99.90;;;;;;5076175;28;20983;-86
2022/01/26 01:36:32;;;;;;;20.00;10.63;;;4.10;99.90;;;;;;5058413;28;20460;-87
2022/01/26 01:38:58;;;;;;;30.20;10.30;;;4.10;99.90;;;;;;5058366;28;20198;-86
2022/01/26 01:41:23;;;;;;;17.90;10.10;;;4.20;99.90;;;;;;5058258;28;20561;-86
2022/01/26 01:43:49;;;;;;;19.20;9.97;;;4.00;99.90;;;;;;5058342;28;20272;-86
2022/01/26 01:46:15;;;;;;;27.00;9.77;;;4.00;99.90;;;;;;5058422;28;20223;-86
2022/01/26 01:48:40;;;;;;;31.77;11.03;;;3.90;99.90;;;;;;5078072;28;20177;-86
2022/01/26 01:51:09;;;;;;;20.63;9.57;;;3.90;99.90;;;;;;5080993;28;20179;-87
2022/01/26 01:53:43;;;;;;;20.63;9.63;;;3.80;99.90;;;;;;5058866;28;20260;-87
2022/01/26 01:56:12;;;;;;;22.30;9.80;;;3.80;99.90;;;;;;5076191;28;20498;-87
2022/01/26 01:58:38;;;;;;;25.23;10.77;;;3.80;99.90;;;;;;5075766;28;20426;-87
2022/01/26 02:01:05;;;;;;;23.77;11.20;;;3.90;99.90;;;;;;5058057;28;20466;-85
2022/01/26 02:03:30;;;;;;;26.00;11.50;;;3.90;99.90;;;;;;5076002;28;20421;-87
2022/01/26 02:05:56;;;;;;;21.83;9.73;;;3.90;99.90;;;;;;5076189;28;20488;-87
2022/01/26 02:08:22;;;;;;;26.50;10.90;;;3.90;99.90;;;;;;5076369;28;20628;-87
2022/01/26 02:10:48;;;;;;;23.10;10.20;;;3.90;99.90;;;;;;5058463;28;20594;-88
2022/01/26 02:13:28;;;;;;;24.83;10.60;;;3.90;99.90;;;;;;5076291;28;20251;-88
2022/01/26 02:16:04;;;;;;;25.20;9.67;;;3.90;99.90;;;;;;5058360;28;20471;-89
2022/01/26 02:21:51;;;;;;;23.77;10.40;;;3.90;99.90;;;;;;5075832;28;20469;-87
2022/01/26 02:51:55;;;;;;;19.13;10.70;;;4.00;99.90;;;;;;5056387;28;20486;-90
2022/01/26 02:54:43;;;;;;;26.47;12.50;;;3.90;99.90;;;;;;5038882;28;20412;-91
2022/01/26 03:05:01;;;;;;;23.80;9.70;;;4.00;99.90;;;;;;5056477;28;20394;-91
2022/01/26 03:07:40;;;;;;;26.23;12.50;;;4.00;99.90;;;;;;5038204;28;20958;-92
2022/01/26 03:10:16;;;;;;;33.17;12.60;;;4.00;99.90;;;;;;5038542;28;20420;-92
2022/01/26 03:12:51;;;;;;;31.43;12.33;;;4.00;99.90;;;;;;5056245;28;20482;-89
2022/01/26 03:15:23;;;;;;;21.33;10.20;;;4.00;99.90;;;;;;5055987;28;20412;-91
2022/01/26 03:20:16;;;;;;;31.93;13.83;;;4.00;99.90;;;;;;5055927;28;20554;-92
2022/01/26 03:28:19;;;;;;;27.50;13.20;;;4.00;99.90;;;;;;5058391;28;20407;-91
2022/01/26 03:33:25;;;;;;;25.63;11.47;;;4.00;99.90;;;;;;5055958;28;20424;-90
2022/01/26 03:35:57;;;;;;;32.10;13.30;;;4.00;99.90;;;;;;5037789;28;20260;-91
2022/01/26 03:38:27;;;;;;;30.53;14.70;;;4.00;99.90;;;;;;5055644;28;20433;-90
2022/01/26 03:41:14;;;;;;;29.33;13.47;;;4.00;99.90;;;;;;5055240;28;20506;-90
2022/01/26 03:43:39;;;;;;;33.00;12.87;;;4.00;99.90;;;;;;5037660;28;20760;-90
2022/01/26 03:46:05;;;;;;;28.50;14.13;;;4.00;99.90;;;;;;5037235;28;20561;-89
2022/01/26 03:48:30;;;;;;;38.50;15.37;;;4.00;99.90;;;;;;5037286;28;20183;-91
2022/01/26 03:50:56;;;;;;;31.43;13.73;;;4.00;99.90;;;;;;5037592;28;20262;-91
2022/01/26 03:53:22;;;;;;;32.00;13.53;;;4.00;99.90;;;;;;5055457;28;20162;-91
2022/01/26 03:55:47;;;;;;;30.00;11.70;;;4.00;99.90;;;;;;5037341;28;20188;-91
2022/01/26 03:58:13;;;;;;;26.57;13.77;;;4.00;99.90;;;;;;5054998;28;20254;-91
2022/01/26 04:00:38;;;;;;;28.43;13.03;;;4.00;99.90;;;;;;5055081;28;20203;-91
2022/01/26 04:03:04;;;;;;;27.40;13.00;;;4.00;99.90;;;;;;5037063;28;20219;-92
2022/01/26 04:05:29;;;;;;;31.23;11.93;;;4.00;99.90;;;;;;5055175;28;20169;-92
2022/01/26 04:08:02;;;;;;;30.40;13.20;;;4.00;99.90;;;;;;5037335;28;20166;-92
2022/01/26 04:13:13;;;;;;;30.80;12.53;;;4.00;99.90;;;;;;5021538;28;20444;-88
2022/01/26 04:15:38;;;;;;;30.20;13.20;;;4.00;99.90;;;;;;5078105;28;20407;-93
2022/01/26 04:18:08;;;;;;;29.60;12.90;;;4.00;99.90;;;;;;5082548;28;20173;-93
2022/01/26 04:20:39;;;;;;;30.70;13.53;;;4.10;99.90;;;;;;5057570;28;20212;-92
2022/01/26 04:23:20;;;;;;;33.63;13.80;;;4.00;99.90;;;;;;5075147;28;20434;-91
2022/01/26 04:25:48;;;;;;;32.70;14.43;;;4.00;99.90;;;;;;5057124;28;20415;-92
2022/01/26 04:28:23;;;;;;;27.30;12.60;;;4.00;99.90;;;;;;5074717;28;20415;-92
2022/01/26 04:30:49;;;;;;;29.67;12.70;;;4.00;99.90;;;;;;5074947;28;20391;-92
2022/01/26 04:33:15;;;;;;;34.70;14.20;;;4.00;99.90;;;;;;5056373;28;20783;-90
2022/01/26 04:35:43;;;;;;;29.33;13.90;;;4.00;99.90;;;;;;5074739;28;20185;-92
2022/01/26 04:38:29;;;;;;;26.77;12.37;;;4.10;99.90;;;;;;5074726;28;20407;-93
2022/01/26 04:43:25;;;;;;;27.43;12.20;;;4.00;99.90;;;;;;5074750;28;20430;-93
2022/01/26 04:45:50;;;;;;;26.00;12.50;;;4.00;99.90;;;;;;5074399;28;20186;-88
2022/01/26 04:48:18;;;;;;;29.43;12.47;;;4.00;99.90;;;;;;5073873;28;20406;-91
2022/01/26 04:50:44;;;;;;;28.70;11.90;;;4.00;99.90;;;;;;5056565;28;20698;-92
2022/01/26 04:53:09;;;;;;;22.87;10.07;;;4.00;99.90;;;;;;5074170;28;20408;-93
2022/01/26 04:55:35;;;;;;;25.10;10.60;;;4.00;99.90;;;;;;5074369;28;20201;-92
2022/01/26 04:58:00;;;;;;;27.90;11.60;;;4.00;99.90;;;;;;5073779;28;20509;-90
2022/01/26 05:00:26;;;;;;;19.70;8.97;;;4.00;99.90;;;;;;5073925;28;20208;-93
2022/01/26 05:02:51;;;;;;;22.93;10.20;;;4.00;99.90;;;;;;5055996;28;20224;-93
2022/01/26 05:05:17;;;;;;;17.97;9.37;;;4.00;99.90;;;;;;5056535;28;20183;-92
2022/01/26 05:07:43;;;;;;;23.63;10.77;;;4.00;99.90;;;;;;5056385;28;20654;-92
2022/01/26 05:10:09;;;;;;;29.10;11.30;;;4.00;99.90;;;;;;5056253;28;20181;-92
2022/01/26 05:12:36;;;;;;;20.00;9.87;;;4.00;99.90;;;;;;5074083;28;20413;-92
2022/01/26 05:15:03;;;;;;;18.43;10.07;;;4.00;99.90;;;;;;5074107;28;20161;-89
2022/01/26 05:17:28;;;;;;;24.60;9.97;;;4.00;99.90;;;;;;5055588;28;20415;-90
2022/01/26 05:19:57;;;;;;;23.90;12.33;;;3.90;99.90;;;;;;5073693;28;20545;-91
2022/01/26 05:22:23;;;;;;;23.57;10.90;;;4.00;99.90;;;;;;5073766;28;20165;-90
2022/01/26 05:24:48;;;;;;;24.43;9.33;;;4.00;99.90;;;;;;5073775;28;20406;-89
2022/01/26 05:27:14;;;;;;;20.00;8.33;;;4.00;99.90;;;;;;5073554;28;20231;-89
2022/01/26 05:29:40;;;;;;;17.93;9.20;;;3.90;99.90;;;;;;5073506;28;20895;-90
2022/01/26 05:32:06;;;;;;;22.90;9.47;;;3.90;99.90;;;;;;5073305;28;20180;-89
2022/01/26 05:34:31;;;;;;;13.10;7.13;;;3.90;99.90;;;;;;5055479;28;20184;-88
2022/01/26 05:36:57;;;;;;;22.93;9.67;;;3.90;99.90;;;;;;5073252;28;20421;-89
2022/01/26 05:39:22;;;;;;;23.27;8.67;;;3.90;99.90;;;;;;5055402;28;20169;-89
2022/01/26 05:41:48;;;;;;;21.07;8.10;;;3.90;99.90;;;;;;5055852;28;20173;-88
2022/01/26 05:44:14;;;;;;;22.90;11.27;;;3.90;99.90;;;;;;5073491;28;20161;-88
2022/01/26 05:46:49;;;;;;;20.80;9.13;;;3.90;99.90;;;;;;5073539;28;20173;-89
2022/01/26 05:49:17;;;;;;;21.57;9.73;;;3.90;99.90;;;;;;5073193;28;20403;-89
2022/01/26 05:51:46;;;;;;;18.27;8.10;;;3.90;99.90;;;;;;5073735;28;20434;-90
2022/01/26 05:54:12;;;;;;;15.60;7.57;;;3.90;99.90;;;;;;5073554;28;21008;-90
2022/01/26 05:56:38;;;;;;;18.27;6.87;;;3.80;99.90;;;;;;5055924;28;20427;-89
2022/01/26 05:59:04;;;;;;;20.30;8.77;;;3.90;99.90;;;;;;5074387;28;20994;-89
2022/01/26 06:01:29;;;;;;;17.90;8.93;;;3.90;99.90;;;;;;5073265;28;20478;-86
2022/01/26 06:03:55;;;;;;;18.67;7.63;;;3.90;99.90;;;;;;5072771;28;20173;-91
2022/01/26 06:06:20;;;;;;;18.13;8.13;;;3.80;99.90;;;;;;5073359;28;20598;-91
2022/01/26 06:08:46;;;;;;;21.47;8.93;;;3.80;99.90;;;;;;5073298;28;20170;-89
2022/01/26 06:11:12;;;;;;;22.23;8.80;;;3.80;99.90;;;;;;5058601;28;20271;-90
2022/01/26 06:13:37;;;;;;;26.47;9.27;;;3.80;99.90;;;;;;5076894;28;20206;-89
2022/01/26 06:16:04;;;;;;;20.03;8.37;;;3.80;99.90;;;;;;5059449;28;20177;-90
2022/01/26 06:18:30;;;;;;;16.70;7.50;;;3.80;99.90;;;;;;5076669;28;20644;-89
2022/01/26 06:20:55;;;;;;;19.77;8.97;;;3.80;99.90;;;;;;5058800;28;20470;-88
2022/01/26 06:23:24;;;;;;;16.53;8.47;;;3.80;99.90;;;;;;5076847;28;20215;-88
2022/01/26 06:25:51;;;;;;;17.43;7.97;;;3.80;99.90;;;;;;5076814;28;20243;-90
2022/01/26 06:28:17;;;;;;;19.07;8.47;;;3.80;99.90;;;;;;5076847;28;20924;-91
2022/01/26 06:30:47;;;;;;;17.27;7.67;;;3.80;99.90;;;;;;5078306;28;20514;-89
2022/01/26 06:33:13;;;;;;;18.07;8.60;;;3.80;99.90;;;;;;5077492;28;20195;-90
2022/01/26 06:35:38;;;;;;;16.03;8.20;;;3.80;99.90;;;;;;5078573;28;20446;-89
2022/01/26 06:38:04;;;;;;;22.53;9.70;;;3.80;99.90;;;;;;5076184;28;20419;-86
2022/01/26 06:40:30;;;;;;;24.00;8.87;;;3.80;99.90;;;;;;5058321;28;20210;-88
2022/01/26 06:43:07;;;;;;;21.10;9.70;;;3.80;99.90;;;;;;5075868;28;20169;-85
2022/01/26 06:45:36;;;;;;;24.80;10.70;;;3.80;99.90;;;;;;5076052;28;20177;-85
2022/01/26 06:48:27;;;;;;;16.53;8.87;;;3.70;99.90;;;;;;5075712;28;20434;-88
2022/01/26 06:50:47;;;;;;;20.37;9.00;;;3.70;99.90;;;;;;5075605;28;20423;-90
2022/01/26 06:53:13;;;;;;;18.77;9.93;;;3.80;99.90;;;;;;5075665;28;20413;-88
2022/01/26 06:55:39;;;;;;;17.23;8.77;;;3.70;99.90;;;;;;5076042;28;20165;-90
2022/01/26 06:58:05;;;;;;;22.50;9.30;;;3.70;99.90;;;;;;5075885;28;20774;-90
2022/01/26 07:00:31;;;;;;;22.10;10.17;;;3.80;99.90;;;;;;5057878;28;20220;-90
2022/01/26 07:02:56;;;;;;;20.17;9.03;;;3.70;99.90;;;;;;5074742;28;20292;-89
2022/01/26 07:05:22;;;;;;;18.60;9.63;;;3.70;99.90;;;;;;5075933;28;20513;-91
2022/01/26 07:07:48;;;;;;;23.03;10.70;;;3.70;99.90;;;;;;5057919;28;20227;-89
2022/01/26 07:10:14;;;;;;;18.77;8.97;;;3.70;99.90;;;;;;5075722;28;20161;-89
2022/01/26 07:12:39;;;;;;;23.40;11.20;;;3.70;99.90;;;;;;5057849;28;20461;-87
2022/01/26 07:23:03;;;;;;;27.23;11.60;;;3.70;99.90;;;;;;5075185;28;20903;-92
2022/01/26 07:25:28;;;;;;;19.60;9.63;;;3.80;99.90;;;;;;5057335;28;20419;-90
2022/01/26 07:27:56;;;;;;;22.33;10.67;;;3.70;99.90;;;;;;5075310;28;20203;-91
2022/01/26 07:30:21;;;;;;;19.00;8.67;;;3.70;99.90;;;;;;5057441;28;20183;-85
2022/01/26 07:32:47;;;;;;;21.80;10.83;;;3.80;99.90;;;;;;5074885;28;20735;-90
2022/01/26 07:35:13;;;;;;;20.43;9.47;;;3.70;99.90;;;;;;5075638;28;20183;-91
2022/01/26 07:37:38;;;;;;;22.77;9.80;;;3.80;99.90;;;;;;5057589;28;20588;-92
2022/01/26 07:40:06;;;;;;;22.73;10.73;;;3.80;99.90;;;;;;5057607;28;20217;-88
2022/01/26 07:42:33;;;;;;;23.67;9.23;;;3.80;99.90;;;;;;5075453;28;20180;-90
2022/01/26 07:45:00;;;;;;;27.93;10.10;;;3.80;99.90;;;;;;5075247;28;20422;-91
2022/01/26 07:47:25;;;;;;;25.07;10.17;;;3.80;99.90;;;;;;5075171;28;20473;-90
2022/01/26 07:49:54;;;;;;;21.07;8.90;;;3.80;99.90;;;;;;5077380;28;20504;-89
2022/01/26 07:52:20;;;;;;;21.40;10.23;;;3.80;99.90;;;;;;5058702;28;20184;-87
2022/01/26 07:54:48;;;;;;;18.27;10.87;;;3.80;99.90;;;;;;5074977;28;20801;-86
2022/01/26 07:57:14;;;;;;;20.50;9.80;;;3.80;99.90;;;;;;5075281;28;20256;-89
2022/01/26 07:59:39;;;;;;;24.30;9.13;;;3.80;99.90;;;;;;5074967;28;20551;-91
2022/01/26 08:02:05;;;;;;;27.13;9.43;;;3.80;99.90;;;;;;5074710;28;20230;-90
2022/01/26 08:04:30;;;;;;;19.83;11.13;;;3.80;99.90;;;;;;5075239;28;20183;-89
2022/01/26 08:06:55;;;;;;;21.23;9.80;;;3.80;99.90;;;;;;5075509;28;20181;-87
2022/01/26 08:09:21;;;;;;;21.03;10.93;;;3.80;99.90;;;;;;5057299;28;20196;-91
2022/01/26 08:11:46;;;;;;;25.90;11.27;;;3.80;99.90;;;;;;5057771;28;20173;-90
2022/01/26 08:14:12;;;;;;;18.70;10.50;;;3.70;99.90;;;;;;5075574;28;20173;-90
2022/01/26 08:16:38;;;;;;;27.00;13.27;;;3.70;99.90;;;;;;5076650;28;20171;-91
2022/01/26 08:19:04;;;;;;;22.40;10.63;;;3.70;99.90;;;;;;5057770;28;20169;-90
2022/01/26 08:21:30;;;;;;;33.17;12.87;;;3.70;99.90;;;;;;5075666;28;20470;-92
2022/01/26 08:24:02;;;;;;;24.03;10.60;;;3.70;99.90;;;;;;5057766;28;20282;-93
2022/01/26 08:26:38;;;;;;;26.10;12.10;;;3.70;99.90;;;;;;5075583;28;20156;-91
2022/01/26 08:29:06;;;;;;;27.47;12.70;;;3.70;99.90;;;;;;5057008;28;20772;-91
2022/01/26 08:31:32;;;;;;;28.60;12.47;;;3.60;99.90;;;;;;5074575;28;20419;-91
2022/01/26 08:33:57;;;;;;;30.63;13.67;;;3.60;99.90;;;;;;5073775;28;20416;-92
2022/01/26 08:36:23;;;;;;;25.67;13.23;;;3.60;99.90;;;;;;5057226;28;20629;-92
2022/01/26 08:38:48;;;;;;;30.03;13.50;;;3.60;99.90;;;;;;5056726;28;20209;-91
2022/01/26 08:41:14;;;;;;;23.53;11.00;;;3.70;99.90;;;;;;5074490;28;20208;-90
2022/01/26 08:43:39;;;;;;;25.77;13.83;;;3.60;99.90;;;;;;5074619;28;20291;-91
2022/01/26 08:46:05;;;;;;;26.73;12.00;;;3.70;99.90;;;;;;5056662;28;20188;-91
2022/01/26 08:48:30;;;;;;;25.50;13.50;;;3.60;99.90;;;;;;5073966;28;20164;-91
2022/01/26 08:50:56;;;;;;;23.63;12.87;;;3.70;99.90;;;;;;5074375;28;20630;-92
2022/01/26 08:53:23;;;;;;;24.10;12.13;;;3.60;99.90;;;;;;5056658;28;20164;-92
2022/01/26 08:55:51;;;;;;;24.43;11.63;;;3.70;99.90;;;;;;5056494;28;20173;-91
2022/01/26 08:58:17;;;;;;;23.80;12.07;;;3.70;99.90;;;;;;5074529;28;20441;-92
2022/01/26 09:00:42;;;;;;;28.30;13.80;;;3.70;99.90;;;;;;5056544;28;20597;-91
2022/01/26 09:03:08;;;;;;;27.10;11.43;;;3.70;99.90;;;;;;5056023;28;20549;-92
2022/01/26 09:05:33;;;;;;;25.57;12.57;;;3.70;99.90;;;;;;5056810;28;20698;-92
2022/01/26 09:08:00;;;;;;;29.17;13.83;;;3.70;99.90;;;;;;5074051;28;20173;-93
2022/01/26 09:10:28;;;;;;;20.13;11.50;;;3.70;99.90;;;;;;5074737;28;20255;-89
2022/01/26 09:12:54;;;;;;;30.00;14.60;;;3.60;99.90;;;;;;5074113;28;20498;-87
2022/01/26 09:15:26;;;;;;;22.97;11.90;;;3.60;99.90;;;;;;5073849;28;20537;-88
2022/01/26 09:17:52;;;;;;;32.47;13.93;;;3.60;99.90;;;;;;5073462;28;20414;-90
2022/01/26 09:20:17;;;;;;;27.60;13.53;;;3.60;99.90;;;;;;5056027;28;20455;-89
2022/01/26 09:22:43;;;;;;;37.13;14.40;;;3.70;99.90;;;;;;5073759;28;20644;-89
2022/01/26 09:25:08;;;;;;;20.03;11.07;;;3.70;99.90;;;;;;5073888;28;20165;-89
2022/01/26 09:27:36;;;;;;;28.20;13.10;;;3.70;99.90;;;;;;5074117;28;20179;-92
2022/01/26 09:30:02;;;;;;;24.70;13.37;;;3.70;99.90;;;;;;5075006;28;20170;-94
2022/01/26 09:32:28;;;;;;;25.83;14.33;;;3.70;99.90;;;;;;5075438;28;20428;-91
2022/01/26 09:34:53;;;;;;;33.67;14.47;;;3.70;99.90;;;;;;5057147;28;20411;-90
2022/01/26 09:37:19;;;;;;;26.50;13.30;;;3.70;99.90;;;;;;5075429;28;20299;-91
2022/01/26 09:39:46;;;;;;;27.37;14.43;;;3.70;99.90;;;;;;5078188;28;20217;-90
2022/01/26 09:42:12;;;;;;;28.97;13.83;;;3.60;99.90;;;;;;5073842;28;20259;-91
2022/01/26 09:44:38;;;;;;;30.27;12.73;;;3.60;99.90;;;;;;5056710;28;20448;-91
2022/01/26 09:47:05;;;;;;;26.70;13.77;;;3.70;99.90;;;;;;5077398;28;20269;-89
2022/01/26 09:49:33;;;;;;;27.57;14.57;;;3.70;99.90;;;;;;5059641;28;20914;-90
2022/01/26 09:52:02;;;;;;;27.43;14.50;;;3.70;99.90;;;;;;5077507;28;20403;-91
2022/01/26 09:54:30;;;;;;;31.53;15.70;;;3.70;99.90;;;;;;5077490;28;20927;-90
2022/01/26 09:57:01;;;;;;;27.90;13.33;;;3.70;99.90;;;;;;5059726;28;20934;-90
2022/01/26 09:59:27;;;;;;;33.10;16.07;;;3.70;99.90;;;;;;5077646;28;20431;-90
2022/01/26 10:01:53;;;;;;;33.90;13.77;;;3.70;99.90;;;;;;5059277;28;20564;-91
2022/01/26 10:04:33;;;;;;;33.20;15.40;;;3.80;99.90;;;;;;5077548;28;20940;-90
2022/01/26 10:07:26;;;;;;;29.73;15.03;;;3.70;99.90;;;;;;5062355;28;20202;-89
2022/01/26 10:15:35;;;;;;;34.70;16.00;;;3.70;99.90;;;;;;5076196;28;20402;-85
2022/01/26 10:18:04;;;;;;;38.77;17.23;;;3.80;99.90;;;;;;5041988;28;20538;-86
2022/01/26 10:20:50;;;;;;;34.30;15.60;;;3.80;99.90;;;;;;5055831;28;20471;-87
2022/01/26 10:23:25;;;;;;;27.33;14.80;;;3.70;99.90;;;;;;5038577;28;20423;-90
2022/01/26 10:26:01;;;;;;;35.30;15.70;;;3.70;99.90;;;;;;5057123;28;20428;-87
2022/01/26 10:28:39;;;;;;;33.10;17.40;;;3.80;99.90;;;;;;5059399;28;20419;-87
2022/01/26 10:31:32;;;;;;;31.63;15.47;;;3.80;99.90;;;;;;5058880;28;20412;-89
2022/01/26 10:33:59;;;;;;;34.40;16.87;;;3.70;99.90;;;;;;5063202;28;20453;-89
2022/01/26 10:36:26;;;;;;;32.40;15.23;;;3.80;99.90;;;;;;5051033;28;20487;-85
2022/01/26 10:39:04;;;;;;;28.70;14.60;;;3.80;99.90;;;;;;5076049;28;20907;-90
2022/01/26 10:41:29;;;;;;;32.43;14.70;;;3.80;99.90;;;;;;5058130;28;20550;-87
2022/01/26 10:43:57;;;;;;;33.80;16.10;;;3.80;99.90;;;;;;5076213;28;20892;-88
2022/01/26 10:46:39;;;;;;;34.43;17.20;;;3.80;99.90;;;;;;5058080;28;20175;-89
2022/01/26 10:54:36;;;;;;;37.70;19.10;;;3.80;99.90;;;;;;5076178;28;20419;-88
2022/01/26 10:57:10;;;;;;;34.40;16.40;;;3.80;99.90;;;;;;5074627;28;20413;-85
2022/01/26 10:59:44;;;;;;;27.23;15.63;;;3.80;99.90;;;;;;5071988;28;20606;-84
2022/01/26 11:02:11;;;;;;;34.33;15.67;;;3.80;99.90;;;;;;5063663;28;20534;-85
2022/01/26 11:04:42;;;;;;;35.33;16.40;;;3.80;99.90;;;;;;5054885;28;20411;-85
2022/01/26 11:07:14;;;;;;;37.17;18.63;;;3.80;99.90;;;;;;5055084;28;20444;-90
2022/01/26 11:09:43;;;;;;;39.23;18.20;;;3.80;99.90;;;;;;5054051;28;20910;-87
2022/01/26 11:12:14;;;;;;;29.50;13.90;;;3.70;99.90;;;;;;5055316;28;20939;-86
2022/01/26 11:14:58;;;;;;;28.50;14.43;;;3.70;99.90;;;;;;5055689;28;20407;-86
2022/01/26 11:17:26;;;;;;;40.87;16.57;;;3.70;99.90;;;;;;5055031;28;20423;-88
2022/01/26 11:19:52;;;;;;;33.83;18.50;;;3.60;99.90;;;;;;5055205;28;20462;-88
2022/01/26 11:22:25;;;;;;;41.53;16.70;;;3.60;99.90;;;;;;5037374;28;20458;-87
2022/01/26 11:24:51;;;;;;;40.60;18.37;;;3.50;99.90;;;;;;5037134;28;20628;-87
2022/01/26 11:27:18;;;;;;;40.40;18.57;;;3.50;99.90;;;;;;5054894;28;20412;-86
2022/01/26 11:29:52;;;;;;;37.13;16.20;;;3.50;99.90;;;;;;5054658;28;20943;-85
2022/01/26 11:32:37;;;;;;;37.13;17.33;;;3.50;99.90;;;;;;5054678;28;20507;-87
2022/01/26 11:35:07;;;;;;;38.23;14.73;;;3.40;99.90;;;;;;5054812;28;20500;-87
2022/01/26 11:37:40;;;;;;;41.23;18.10;;;3.50;99.90;;;;;;5054294;28;20413;-85
2022/01/26 11:45:38;;;;;;;44.27;16.27;;;3.50;99.90;;;;;;5054141;28;20422;-87
2022/01/26 11:48:10;;;;;;;37.17;14.57;;;3.60;99.90;;;;;;5052011;28;20174;-85
2022/01/26 11:50:38;;;;;;;35.90;17.30;;;3.50;99.90;;;;;;5036431;28;20482;-86
2022/01/26 11:53:14;;;;;;;35.83;15.10;;;3.60;99.90;;;;;;5055617;28;20484;-86
2022/01/26 11:55:48;;;;;;;32.50;15.97;;;3.60;99.90;;;;;;5037291;28;20424;-86
2022/01/26 11:58:16;;;;;;;37.83;15.90;;;3.70;99.90;;;;;;5036779;28;20424;-87
2022/01/26 12:00:59;;;;;;;27.93;13.37;;;3.70;99.90;;;;;;5054370;28;20464;-89
2022/01/26 12:03:32;;;;;;;40.40;15.37;;;3.70;99.90;;;;;;5054586;28;20783;-88
2022/01/26 12:05:59;;;;;;;34.57;15.50;;;3.60;99.90;;;;;;5054189;28;20404;-90
2022/01/26 12:08:34;;;;;;;33.10;14.00;;;3.70;99.90;;;;;;5053985;28;20416;-88
2022/01/26 12:11:01;;;;;;;36.17;15.63;;;3.70;99.90;;;;;;5054413;28;20412;-89
2022/01/26 12:13:29;;;;;;;40.40;17.57;;;3.70;99.90;;;;;;5054502;28;20466;-86
2022/01/26 12:15:58;;;;;;;37.37;16.20;;;3.60;99.90;;;;;;5054185;28;20450;-86
2022/01/26 12:18:40;;;;;;;27.87;11.73;;;3.60;99.90;;;;;;5054001;28;20410;-88
2022/01/26 12:38:08;;;;;;;34.37;15.80;;;3.50;99.90;;;;;;5053970;28;20411;-87
2022/01/26 12:43:43;;;;;;;33.77;15.03;;;3.50;99.90;;;;;;5053990;28;20419;-86
2022/01/26 12:46:12;;;;;;;43.10;19.40;;;3.50;99.90;;;;;;5053082;28;20410;-87
2022/01/26 12:48:40;;;;;;;39.17;18.60;;;3.50;99.90;;;;;;5053489;28;20423;-87
2022/01/26 12:51:07;;;;;;;39.77;15.93;;;3.50;99.90;;;;;;5035906;28;20818;-88
2022/01/26 12:53:35;;;;;;;40.77;19.20;;;3.60;99.90;;;;;;5036149;28;20416;-88
2022/01/26 12:56:07;;;;;;;45.50;18.93;;;3.60;99.90;;;;;;5036143;28;20409;-88
2022/01/26 12:58:35;;;;;;;48.00;19.80;;;3.50;99.90;;;;;;5035879;28;20424;-90
2022/01/26 13:01:04;;;;;;;45.77;19.37;;;3.50;99.90;;;;;;5034957;28;20472;-90
2022/01/26 13:03:35;;;;;;;47.30;19.03;;;3.50;99.90;;;;;;5035335;28;20956;-89
2022/01/26 13:06:09;;;;;;;42.33;19.80;;;3.50;99.90;;;;;;5053703;28;20831;-89
2022/01/26 13:08:48;;;;;;;40.40;19.10;;;3.40;99.90;;;;;;5052883;28;20418;-89
2022/01/26 13:11:35;;;;;;;41.23;18.63;;;3.50;99.90;;;;;;5058910;28;20442;-88
2022/01/26 13:14:17;;;;;;;43.37;18.53;;;3.50;99.90;;;;;;5058029;28;20460;-87
2022/01/26 13:17:14;;;;;;;46.40;21.37;;;3.40;99.90;;;;;;5035493;28;20946;-88
2022/01/26 13:22:50;;;;;;;50.33;17.93;;;3.40;99.90;;;;;;5057954;28;20420;-88
2022/01/26 13:25:52;;;;;;;41.00;16.73;;;3.40;99.90;;;;;;5059660;28;20792;-89
2022/01/26 13:29:25;;;;;;;41.90;18.00;;;3.50;99.90;;;;;;5068733;28;20422;-87
2022/01/26 13:32:01;;;;;;;38.90;18.10;;;3.50;99.90;;;;;;5056039;28;20405;-89
2022/01/26 13:39:46;;;;;;;35.90;17.77;;;3.60;99.90;;;;;;5056493;28;20494;-86
2022/01/26 13:42:38;;;;;;;38.47;16.40;;;3.50;99.90;;;;;;5039145;28;20426;-87
2022/01/26 13:47:44;;;;;;;41.13;16.93;;;3.60;99.90;;;;;;5064463;28;20426;-89
2022/01/26 13:52:56;;;;;;;46.00;19.10;;;3.60;99.90;;;;;;5077055;28;20882;-89
2022/01/26 14:00:17;;;;;;;37.37;17.57;;;3.60;99.90;;;;;;5067149;28;20201;-88
2022/01/26 14:02:42;;;;;;;44.17;18.03;;;3.60;99.90;;;;;;5053091;28;20220;-86
2022/01/26 14:05:08;;;;;;;39.90;19.50;;;3.70;99.90;;;;;;5075107;28;20419;-87
2022/01/26 14:07:34;;;;;;;40.33;17.87;;;3.60;99.90;;;;;;5061730;28;20215;-88
2022/01/26 14:10:00;;;;;;;47.40;21.07;;;3.60;99.90;;;;;;5077557;28;20477;-89
2022/01/26 14:12:31;;;;;;;48.97;21.47;;;3.60;99.90;;;;;;5058063;28;20414;-86
2022/01/26 14:14:58;;;;;;;44.93;19.93;;;3.60;99.90;;;;;;5058654;28;20417;-88
2022/01/26 14:18:33;;;;;;;49.90;20.17;;;3.60;99.90;;;;;;5064737;28;20429;-88
2022/01/26 14:20:38;;;;;;;39.60;17.53;;;3.60;99.90;;;;;;5056232;28;20877;-87
2022/01/26 14:25:49;;;;;;;49.17;21.60;;;3.60;99.90;;;;;;5056316;28;20452;-85
2022/01/26 14:28:18;;;;;;;42.23;19.67;;;3.60;99.90;;;;;;5055960;28;20409;-89
2022/01/26 14:31:11;;;;;;;40.27;18.10;;;3.60;99.90;;;;;;5055538;28;20929;-83
2022/01/26 14:36:44;;;;;;;45.90;20.63;;;3.60;99.90;;;;;;5042686;28;20410;-84
2022/01/26 14:39:42;;;;;;;43.57;19.80;;;3.60;99.90;;;;;;5037517;28;20439;-86
2022/01/26 15:08:40;;;;;;;45.63;18.33;;;3.80;99.90;;;;;;5055311;28;20209;-87
2022/01/26 15:12:17;;;;;;;41.50;18.77;;;3.80;99.90;;;;;;5055399;28;20403;-90
2022/01/26 15:21:30;;;;;;;39.57;18.43;;;3.80;99.90;;;;;;5055169;28;20454;-86
2022/01/26 15:33:31;;;;;;;40.37;17.57;;;3.90;99.90;;;;;;5055295;28;20794;-88
2022/01/26 15:41:34;;;;;;;39.23;18.07;;;3.90;99.90;;;;;;5074569;28;20874;-83
2022/01/26 15:44:19;;;;;;;38.77;16.50;;;3.90;99.90;;;;;;5073949;28;20506;-84
2022/01/26 15:52:11;;;;;;;48.30;17.90;;;4.00;99.90;;;;;;5074042;28;20857;-85
2022/01/26 16:08:25;;;;;;;38.80;15.10;;;4.10;99.90;;;;;;5068222;28;20489;-85
2022/01/26 16:26:18;;;;;;;39.30;16.93;;;4.10;99.90;;;;;;5052723;28;20863;-85
2022/01/26 18:13:06;;;;;;;54.30;24.40;;;4.30;99.90;;;;;;5074542;28;20402;-87
2022/01/26 18:13:33;;;;;;;58.80;22.93;;;4.30;99.90;;;;;;5074316;28;20903;-86
2022/01/26 18:16:02;;;;;;;59.07;21.60;;;4.30;99.90;;;;;;5073468;28;20411;-86
2022/01/26 18:32:20;;;;;;;55.47;22.50;;;4.30;99.90;;;;;;4992085;28;20262;-86
2022/01/26 18:50:54;;;;;;;66.63;23.07;;;4.40;99.90;;;;;;5073882;28;20494;-85
2022/01/26 18:53:19;;;;;;;50.83;22.97;;;4.40;99.90;;;;;;5056006;28;20432;-86
2022/01/26 18:55:45;;;;;;;61.40;24.27;;;4.40;99.90;;;;;;5055804;28;20645;-86
2022/01/26 18:58:13;;;;;;;59.67;26.70;;;4.40;99.90;;;;;;5073790;28;20220;-86
2022/01/26 19:00:43;;;;;;;49.97;22.17;;;4.40;99.90;;;;;;5055395;28;20236;-86
2022/01/26 19:03:09;;;;;;;61.93;25.30;;;4.40;99.90;;;;;;5073921;28;20986;-86